createdAt,value
2022-12-11T00:01:17.821Z,48.52
2022-12-11T00:03:50.800Z,49.30
2022-12-11T00:06:24.512Z,46.20
2022-12-11T00:08:57.776Z,48.38
2022-12-11T00:11:30.346Z,44.13
2022-12-11T00:14:02.917Z,44.13
2022-12-11T00:16:35.445Z,43.70
2022-12-11T00:19:08.218Z,43.50
2022-12-11T00:21:40.611Z,44.80
2022-12-11T00:24:13.374Z,44.98
2022-12-11T00:26:46.016Z,43.65
2022-12-11T00:29:19.566Z,46.23
2022-12-11T00:31:52.112Z,42.17
2022-12-11T00:34:24.692Z,44.60
2022-12-11T00:36:58.967Z,42.83
2022-12-11T00:39:32.010Z,43.50
2022-12-11T00:42:04.508Z,42.45
2022-12-11T00:44:37.649Z,41.60
2022-12-11T00:47:10.089Z,42.78
2022-12-11T00:49:48.076Z,39.83
2022-12-11T00:52:18.236Z,39.58
2022-12-11T00:54:50.858Z,38.60
2022-12-11T00:57:23.228Z,36.25
2022-12-11T00:59:55.908Z,36.25
2022-12-11T01:02:28.475Z,34.18
2022-12-11T01:05:01.112Z,35.00
2022-12-11T01:07:34.143Z,34.45
2022-12-11T01:10:25.866Z,33.30
2022-12-11T01:13:06.804Z,33.15
2022-12-11T01:15:44.859Z,33.55
2022-12-11T01:18:17.336Z,30.50
2022-12-11T01:20:50.048Z,30.85
2022-12-11T01:23:22.805Z,29.37
2022-12-11T01:25:55.328Z,27.73
2022-12-11T01:28:29.709Z,30.62
2022-12-11T01:31:02.274Z,31.37
2022-12-11T01:33:35.087Z,32.10
2022-12-11T01:36:21.170Z,28.25
2022-12-11T01:38:54.684Z,31.45
2022-12-11T01:41:27.290Z,33.83
2022-12-11T01:44:06.694Z,31.85
2022-12-11T01:46:39.530Z,32.17
2022-12-11T01:49:14.015Z,28.92
2022-12-11T01:54:32.658Z,25.57
2022-12-11T01:57:07.907Z,28.30
2022-12-11T01:59:42.404Z,25.50
2022-12-11T02:02:21.874Z,26.05
2022-12-11T02:04:54.293Z,24.40
2022-12-11T02:07:26.701Z,25.48
2022-12-11T02:09:59.190Z,25.82
2022-12-11T02:12:51.632Z,26.93
2022-12-11T02:15:37.145Z,26.10
2022-12-11T02:18:23.237Z,25.68
2022-12-11T02:21:18.961Z,25.40
2022-12-11T02:24:16.222Z,24.47
2022-12-11T02:27:26.633Z,23.83
2022-12-11T02:30:08.306Z,21.75
2022-12-11T02:32:57.129Z,23.70
2022-12-11T02:35:42.058Z,22.50
2022-12-11T02:38:28.565Z,22.30
2022-12-11T02:41:01.367Z,22.02
2022-12-11T02:43:35.379Z,22.22
2022-12-11T02:46:08.914Z,22.15
2022-12-11T02:48:41.804Z,22.45
2022-12-11T02:51:16.723Z,21.05
2022-12-11T02:53:50.126Z,21.60
2022-12-11T02:56:32.118Z,22.32
2022-12-11T02:59:12.277Z,21.62
2022-12-11T03:01:45.597Z,21.55
2022-12-11T03:04:18.140Z,23.15
2022-12-11T03:06:52.665Z,22.37
2022-12-11T03:09:25.164Z,21.33
2022-12-11T03:11:57.618Z,22.82
2022-12-11T03:14:30.096Z,21.57
2022-12-11T03:17:22.355Z,18.90
2022-12-11T03:20:05.433Z,18.32
2022-12-11T03:22:49.233Z,16.48
2022-12-11T03:25:32.074Z,16.15
2022-12-11T03:28:20.949Z,15.80
2022-12-11T03:30:53.793Z,14.83
2022-12-11T03:33:33.231Z,13.88
2022-12-11T03:36:22.025Z,15.15
2022-12-11T03:39:14.515Z,15.72
2022-12-11T03:41:47.107Z,15.20
2022-12-11T03:44:20.590Z,14.53
2022-12-11T03:46:54.519Z,15.30
2022-12-11T03:49:29.831Z,15.48
2022-12-11T03:52:02.288Z,15.78
2022-12-11T03:54:34.990Z,15.85
2022-12-11T03:57:07.350Z,14.28
2022-12-11T03:59:40.072Z,15.03
2022-12-11T04:02:12.641Z,15.98
2022-12-11T04:04:45.348Z,16.20
2022-12-11T04:07:18.030Z,15.58
2022-12-11T04:09:50.907Z,15.95
2022-12-11T04:12:23.995Z,15.32
2022-12-11T04:15:05.436Z,15.08
2022-12-11T04:17:56.720Z,15.70
2022-12-11T04:20:47.412Z,16.05
2022-12-11T04:23:38.228Z,14.68
2022-12-11T04:26:16.459Z,15.95
2022-12-11T04:28:49.867Z,16.35
2022-12-11T04:31:23.604Z,16.67
2022-12-11T04:33:56.119Z,16.40
2022-12-11T04:36:28.449Z,15.78
2022-12-11T04:39:00.932Z,15.58
2022-12-11T04:41:33.339Z,16.23
2022-12-11T04:44:06.435Z,16.75
2022-12-11T04:46:38.911Z,17.17
2022-12-11T04:49:12.774Z,22.37
2022-12-11T04:51:45.268Z,15.98
2022-12-11T04:54:18.654Z,17.07
2022-12-11T04:56:50.997Z,16.77
2022-12-11T04:59:23.699Z,17.32
2022-12-11T05:01:56.084Z,16.95
2022-12-11T05:04:33.439Z,17.27
2022-12-11T05:07:05.809Z,15.23
2022-12-11T05:09:38.830Z,16.77
2022-12-11T05:12:11.441Z,16.57
2022-12-11T05:14:44.874Z,14.80
2022-12-11T05:17:17.421Z,14.57
2022-12-11T05:19:53.201Z,13.22
2022-12-11T05:22:26.143Z,14.13
2022-12-11T05:24:58.473Z,14.23
2022-12-11T05:27:30.934Z,14.68
2022-12-11T05:30:03.338Z,14.30
2022-12-11T05:32:36.093Z,13.58
2022-12-11T05:35:29.925Z,12.98
2022-12-11T05:38:02.476Z,11.63
2022-12-11T05:40:35.141Z,11.12
2022-12-11T05:43:07.577Z,11.38
2022-12-11T05:45:40.087Z,11.45
2022-12-11T05:48:12.603Z,11.75
2022-12-11T05:50:45.161Z,12.07
2022-12-11T05:53:17.643Z,12.05
2022-12-11T05:55:50.080Z,12.20
2022-12-11T05:58:22.568Z,12.23
2022-12-11T06:00:55.172Z,12.43
2022-12-11T06:03:27.946Z,11.57
2022-12-11T06:06:04.964Z,12.10
2022-12-11T06:08:37.854Z,11.53
2022-12-11T06:11:10.401Z,12.00
2022-12-11T06:13:44.136Z,11.30
2022-12-11T06:16:16.847Z,11.00
2022-12-11T06:18:49.398Z,11.45
2022-12-11T06:21:28.251Z,11.03
2022-12-11T06:24:03.521Z,10.78
2022-12-11T06:26:36.037Z,10.80
2022-12-11T06:29:12.626Z,11.95
2022-12-11T06:31:43.210Z,11.97
2022-12-11T06:34:16.202Z,12.55
2022-12-11T06:36:48.612Z,10.98
2022-12-11T06:39:21.174Z,12.20
2022-12-11T06:41:54.486Z,12.45
2022-12-11T06:44:28.512Z,12.93
2022-12-11T06:47:01.368Z,12.63
2022-12-11T06:49:33.939Z,12.33
2022-12-11T06:52:07.810Z,12.63
2022-12-11T06:54:40.371Z,14.05
2022-12-11T06:57:12.894Z,15.25
2022-12-11T06:59:45.899Z,12.85
2022-12-11T07:02:19.980Z,12.95
2022-12-11T07:04:55.227Z,13.60
2022-12-11T07:07:26.693Z,15.40
2022-12-11T07:10:05.785Z,12.70
2022-12-11T07:15:06.470Z,11.57
2022-12-11T07:17:39.571Z,13.05
2022-12-11T07:20:12.930Z,12.47
2022-12-11T07:22:47.067Z,12.28
2022-12-11T07:25:27.211Z,11.15
2022-12-11T07:27:59.535Z,11.45
2022-12-11T07:30:32.469Z,11.97
2022-12-11T07:33:04.902Z,11.53
2022-12-11T07:35:38.200Z,13.43
2022-12-11T07:38:10.593Z,12.43
2022-12-11T07:40:42.953Z,13.15
2022-12-11T07:43:15.879Z,13.32
2022-12-11T07:45:48.319Z,13.20
2022-12-11T07:48:20.886Z,14.68
2022-12-11T07:50:53.290Z,14.30
2022-12-11T07:53:25.950Z,13.22
2022-12-11T07:56:00.107Z,13.45
2022-12-11T07:58:32.965Z,13.75
2022-12-11T08:01:07.063Z,16.67
2022-12-11T08:03:39.892Z,13.18
2022-12-11T08:06:12.780Z,12.73
2022-12-11T08:08:45.292Z,12.28
2022-12-11T08:11:17.800Z,11.80
2022-12-11T08:13:51.117Z,12.23
2022-12-11T08:16:24.170Z,12.10
2022-12-11T08:18:56.863Z,12.85
2022-12-11T08:21:29.564Z,13.65
2022-12-11T08:24:02.011Z,13.43
2022-12-11T08:26:35.016Z,13.55
2022-12-11T08:29:08.074Z,13.93
2022-12-11T08:31:42.197Z,12.78
2022-12-11T08:34:14.567Z,12.50
2022-12-11T08:36:47.324Z,13.32
2022-12-11T08:39:20.817Z,13.43
2022-12-11T08:41:53.433Z,13.35
2022-12-11T08:44:27.292Z,12.47
2022-12-11T08:46:59.719Z,13.40
2022-12-11T08:49:34.635Z,13.32
2022-12-11T08:52:08.551Z,12.82
2022-12-11T08:57:14.519Z,11.10
2022-12-11T08:59:47.320Z,11.45
2022-12-11T09:02:19.974Z,11.03
2022-12-11T09:04:52.702Z,13.05
2022-12-11T09:07:25.873Z,13.03
2022-12-11T09:09:58.488Z,12.58
2022-12-11T09:12:31.737Z,11.45
2022-12-11T09:15:05.194Z,12.18
2022-12-11T09:17:37.837Z,12.37
2022-12-11T09:20:11.152Z,12.53
2022-12-11T09:22:44.688Z,12.18
2022-12-11T09:25:17.161Z,14.70
2022-12-11T09:27:49.741Z,15.32
2022-12-11T09:30:22.237Z,16.60
2022-12-11T09:32:54.929Z,16.35
2022-12-11T09:35:27.839Z,16.55
2022-12-11T09:38:00.272Z,14.83
2022-12-11T09:40:33.813Z,15.48
2022-12-11T09:43:29.992Z,15.35
2022-12-11T09:46:04.090Z,14.95
2022-12-11T09:48:36.500Z,13.45
2022-12-11T09:51:20.000Z,15.05
2022-12-11T09:53:52.488Z,15.40
2022-12-11T09:56:35.246Z,17.50
2022-12-11T09:59:33.384Z,17.60
2022-12-11T10:02:13.656Z,18.35
2022-12-11T10:05:05.993Z,19.35
2022-12-11T10:07:46.220Z,20.60
2022-12-11T10:10:55.168Z,22.10
2022-12-11T10:13:53.060Z,21.20
2022-12-11T10:16:37.024Z,19.52
2022-12-11T10:19:22.527Z,18.00
2022-12-11T10:21:55.048Z,16.75
2022-12-11T10:25:09.980Z,13.48
2022-12-11T10:27:22.660Z,11.93
2022-12-11T10:29:59.876Z,10.90
2022-12-11T10:32:45.966Z,10.15
2022-12-11T10:35:45.269Z,9.98
2022-12-11T10:38:37.708Z,9.90
2022-12-11T10:41:21.362Z,8.85
2022-12-11T10:43:54.508Z,9.80
2022-12-11T10:46:28.770Z,9.65
2022-12-11T10:49:02.369Z,9.18
2022-12-11T10:51:56.280Z,9.87
2022-12-11T10:54:38.382Z,8.95
2022-12-11T10:57:12.291Z,9.80
2022-12-11T10:59:52.153Z,8.65
2022-12-11T11:02:40.761Z,8.98
2022-12-11T11:05:32.555Z,8.40
2022-12-11T11:08:21.633Z,8.13
2022-12-11T11:10:56.062Z,8.83
2022-12-11T11:16:14.951Z,7.22
2022-12-11T11:21:29.251Z,8.10
2022-12-11T11:24:01.801Z,8.63
2022-12-11T11:27:11.102Z,7.85
2022-12-11T11:29:12.583Z,8.73
2022-12-11T11:31:45.647Z,8.80
2022-12-11T11:34:22.543Z,9.03
2022-12-11T11:37:01.148Z,8.60
2022-12-11T11:39:40.729Z,9.08
2022-12-11T11:42:28.160Z,9.40
2022-12-11T11:45:09.199Z,9.10
2022-12-11T11:47:55.661Z,8.33
2022-12-11T11:50:34.946Z,9.15
2022-12-11T11:53:20.510Z,9.00
2022-12-11T11:56:03.140Z,8.55
2022-12-11T11:58:45.584Z,8.23
2022-12-11T12:01:20.175Z,8.75
2022-12-11T12:03:52.807Z,8.98
2022-12-11T12:06:53.029Z,9.00
2022-12-11T12:09:39.054Z,9.95
2022-12-11T12:12:21.043Z,9.75
2022-12-11T12:15:22.066Z,9.58
2022-12-11T12:18:13.207Z,9.20
2022-12-11T12:21:23.550Z,8.93
2022-12-11T12:24:15.413Z,9.20
2022-12-11T12:27:17.608Z,9.78
2022-12-11T12:30:04.521Z,9.88
2022-12-11T12:33:02.879Z,9.20
2022-12-11T12:35:43.155Z,9.68
2022-12-11T12:38:38.372Z,8.98
2022-12-11T12:41:33.414Z,9.38
2022-12-11T12:44:26.522Z,9.00
2022-12-11T12:47:14.408Z,9.83
2022-12-11T12:49:51.463Z,9.75
2022-12-11T12:52:36.164Z,9.90
2022-12-11T12:55:24.225Z,11.18
2022-12-11T12:58:07.055Z,11.55
2022-12-11T13:00:44.323Z,11.55
2022-12-11T13:03:22.461Z,11.22
2022-12-11T13:06:05.132Z,11.30
2022-12-11T13:08:51.080Z,11.18
2022-12-11T13:11:25.330Z,11.65
2022-12-11T13:14:17.733Z,10.68
2022-12-11T13:16:53.777Z,10.50
2022-12-11T13:19:29.605Z,9.43
2022-12-11T13:22:22.407Z,9.30
2022-12-11T13:25:01.265Z,8.05
2022-12-11T13:27:41.867Z,7.65
2022-12-11T13:30:24.277Z,6.83
2022-12-11T13:33:09.422Z,6.35
2022-12-11T13:35:42.182Z,5.50
2022-12-11T13:38:20.511Z,5.05
2022-12-11T13:40:55.663Z,4.65
2022-12-11T13:43:30.847Z,4.62
2022-12-11T13:46:05.310Z,4.83
2022-12-11T13:48:48.588Z,4.40
2022-12-11T13:51:23.115Z,5.08
2022-12-11T13:54:29.376Z,4.03
2022-12-11T13:57:11.882Z,4.60
2022-12-11T13:59:56.185Z,4.83
2022-12-11T14:02:39.008Z,4.65
2022-12-11T14:05:12.923Z,4.55
2022-12-11T14:07:54.402Z,4.40
2022-12-11T14:10:28.718Z,4.80
2022-12-11T14:13:26.632Z,4.12
2022-12-11T14:15:59.189Z,4.60
2022-12-11T14:18:33.967Z,4.37
2022-12-11T14:21:07.824Z,4.30
2022-12-11T14:23:40.202Z,5.00
2022-12-11T14:26:24.569Z,4.92
2022-12-11T14:28:57.130Z,4.10
2022-12-11T14:31:37.487Z,4.17
2022-12-11T14:34:22.717Z,4.12
2022-12-11T14:36:55.326Z,4.42
2022-12-11T14:39:34.667Z,4.83
2022-12-11T14:42:16.819Z,4.15
2022-12-11T14:44:56.341Z,4.28
2022-12-11T14:47:42.604Z,4.55
2022-12-11T14:50:27.574Z,4.35
2022-12-11T14:53:07.277Z,4.60
2022-12-11T14:55:39.590Z,4.03
2022-12-11T14:58:23.925Z,4.25
2022-12-11T15:01:02.912Z,4.30
2022-12-11T15:03:40.314Z,3.72
2022-12-11T15:06:31.129Z,4.33
2022-12-11T15:09:14.613Z,4.50
2022-12-11T15:11:47.724Z,4.12
2022-12-11T15:14:23.020Z,3.95
2022-12-11T15:16:58.088Z,4.37
2022-12-11T15:19:34.029Z,4.40
2022-12-11T15:22:07.631Z,4.08
2022-12-11T15:24:42.812Z,4.60
2022-12-11T15:27:38.322Z,4.62
2022-12-11T15:30:26.370Z,4.83
2022-12-11T15:33:15.282Z,4.92
2022-12-11T15:36:07.885Z,4.37
2022-12-11T15:38:42.355Z,5.03
2022-12-11T15:41:17.649Z,4.65
2022-12-11T15:43:53.914Z,4.70
2022-12-11T15:46:24.280Z,4.47
2022-12-11T15:48:58.112Z,4.33
2022-12-11T15:51:30.576Z,4.87
2022-12-11T15:54:03.282Z,4.50
2022-12-11T15:56:36.253Z,3.70
2022-12-11T15:59:08.915Z,3.87
2022-12-11T16:01:41.304Z,4.50
2022-12-11T16:04:15.003Z,4.40
2022-12-11T16:06:47.572Z,4.22
2022-12-11T16:09:20.843Z,4.42
2022-12-11T16:11:53.194Z,4.25
2022-12-11T16:14:25.785Z,4.15
2022-12-11T16:16:58.185Z,3.72
2022-12-11T16:19:31.635Z,4.40
2022-12-11T16:22:04.885Z,4.20
2022-12-11T16:24:38.192Z,4.08
2022-12-11T16:27:10.959Z,3.72
2022-12-11T16:29:43.877Z,3.33
2022-12-11T16:32:16.421Z,3.52
2022-12-11T16:34:48.882Z,3.92
2022-12-11T16:37:21.258Z,4.08
2022-12-11T16:39:53.920Z,3.35
2022-12-11T16:42:26.325Z,4.12
2022-12-11T16:45:21.931Z,4.20
2022-12-11T16:47:54.476Z,4.25
2022-12-11T16:50:27.035Z,4.30
2022-12-11T16:52:59.575Z,4.42
2022-12-11T16:55:32.257Z,5.10
2022-12-11T16:58:04.803Z,4.42
2022-12-11T17:00:37.510Z,4.95
2022-12-11T17:03:10.015Z,5.25
2022-12-11T17:05:43.744Z,5.53
2022-12-11T17:10:48.828Z,6.35
2022-12-11T17:13:21.500Z,6.95
2022-12-11T17:15:54.229Z,6.75
2022-12-11T17:18:26.634Z,7.10
2022-12-11T17:20:59.823Z,7.17
2022-12-11T17:23:32.526Z,6.87
2022-12-11T17:26:04.995Z,6.12
2022-12-11T17:28:37.948Z,6.53
2022-12-11T17:31:16.846Z,6.55
2022-12-11T17:33:50.105Z,7.08
2022-12-11T17:36:23.488Z,7.65
2022-12-11T17:38:56.182Z,7.80
2022-12-11T17:41:28.869Z,6.92
2022-12-11T17:44:01.280Z,6.50
2022-12-11T17:46:33.830Z,6.70
2022-12-11T17:49:06.698Z,6.70
2022-12-11T17:51:39.879Z,6.97
2022-12-11T17:54:12.338Z,6.90
2022-12-11T17:56:44.994Z,7.15
2022-12-11T17:59:18.022Z,6.83
2022-12-11T18:01:50.672Z,7.12
2022-12-11T18:04:23.019Z,8.58
2022-12-11T18:06:55.414Z,8.43
2022-12-11T18:09:28.067Z,9.25
2022-12-11T18:12:00.938Z,9.50
2022-12-11T18:14:33.328Z,10.45
2022-12-11T18:17:06.441Z,9.50
2022-12-11T18:19:44.385Z,10.18
2022-12-11T18:22:13.000Z,11.30
2022-12-11T18:24:45.340Z,10.10
2022-12-11T18:27:18.085Z,9.30
2022-12-11T18:29:50.450Z,10.10
2022-12-11T18:32:22.966Z,9.58
2022-12-11T18:34:55.500Z,10.03
2022-12-11T18:37:28.322Z,9.83
2022-12-11T18:40:00.834Z,9.18
2022-12-11T18:42:33.996Z,8.98
2022-12-11T18:45:07.657Z,8.50
2022-12-11T18:47:40.013Z,8.05
2022-12-11T18:50:14.266Z,7.60
2022-12-11T18:52:46.618Z,7.95
2022-12-11T18:55:18.961Z,7.40
2022-12-11T18:57:51.425Z,8.25
2022-12-11T19:00:24.209Z,7.15
2022-12-11T19:02:56.845Z,2.75
2022-12-11T19:05:30.424Z,2.42
2022-12-11T19:08:03.461Z,2.90
2022-12-11T19:10:37.703Z,2.70
2022-12-11T19:13:31.174Z,2.67
2022-12-11T19:16:05.238Z,3.35
2022-12-11T19:18:37.596Z,3.90
2022-12-11T19:21:12.726Z,4.10
2022-12-11T19:26:19.794Z,3.45
2022-12-11T19:28:53.008Z,3.70
2022-12-11T19:33:59.208Z,4.50
2022-12-11T19:36:33.666Z,4.42
2022-12-11T19:39:12.638Z,4.70
2022-12-11T19:41:40.972Z,4.12
2022-12-11T19:44:13.547Z,4.53
2022-12-11T19:46:46.228Z,4.62
2022-12-11T19:49:19.373Z,4.70
2022-12-11T19:51:51.972Z,5.00
2022-12-11T19:54:26.030Z,4.80
2022-12-11T19:56:58.341Z,5.20
2022-12-11T19:59:31.254Z,5.90
2022-12-11T20:02:03.810Z,5.83
2022-12-11T20:04:36.417Z,6.03
2022-12-11T20:07:08.794Z,5.40
2022-12-11T20:09:42.942Z,6.03
2022-12-11T20:12:15.680Z,6.62
2022-12-11T20:14:48.416Z,5.87
2022-12-11T20:17:20.917Z,6.17
2022-12-11T20:19:54.752Z,5.33
2022-12-11T20:22:27.073Z,5.37
2022-12-11T20:24:59.570Z,6.33
2022-12-11T20:27:32.355Z,5.65
2022-12-11T20:30:06.095Z,6.20
2022-12-11T20:32:38.818Z,5.10
2022-12-11T20:35:11.804Z,5.17
2022-12-11T20:37:44.985Z,5.47
2022-12-11T20:40:17.559Z,5.83
2022-12-11T20:42:50.230Z,5.30
2022-12-11T20:45:22.984Z,6.12
2022-12-11T20:47:55.369Z,5.75
2022-12-11T20:50:28.882Z,5.03
2022-12-11T20:53:01.383Z,5.47
2022-12-11T20:55:33.860Z,5.53
2022-12-11T20:58:06.169Z,5.45
2022-12-11T21:00:39.874Z,5.65
2022-12-11T21:03:12.298Z,4.78
2022-12-11T21:05:46.598Z,5.97
2022-12-11T21:08:19.846Z,4.95
2022-12-11T21:10:52.326Z,4.62
2022-12-11T21:13:25.787Z,5.28
2022-12-11T21:15:58.132Z,4.78
2022-12-11T21:18:30.730Z,5.42
2022-12-11T21:21:03.262Z,5.37
2022-12-11T21:23:36.268Z,5.10
2022-12-11T21:26:09.012Z,5.15
2022-12-11T21:28:41.561Z,5.55
2022-12-11T21:31:16.694Z,5.80
2022-12-11T21:33:49.538Z,4.75
2022-12-11T21:36:22.093Z,5.10
2022-12-11T21:38:55.205Z,5.30
2022-12-11T21:41:29.348Z,5.28
2022-12-11T21:45:14.503Z,5.45
2022-12-11T21:46:38.065Z,4.90
2022-12-11T21:49:10.693Z,4.87
2022-12-11T21:51:47.107Z,4.97
2022-12-11T21:54:19.361Z,5.83
2022-12-11T21:56:51.747Z,5.37
2022-12-11T21:59:25.016Z,5.25
2022-12-11T22:01:57.435Z,4.80
2022-12-11T22:04:30.287Z,5.08
2022-12-11T22:07:02.903Z,4.53
2022-12-11T22:09:35.162Z,4.42
2022-12-11T22:12:08.061Z,5.42
2022-12-11T22:14:40.933Z,5.20
2022-12-11T22:17:13.454Z,4.90
2022-12-11T22:19:46.441Z,5.15
2022-12-11T22:22:19.394Z,5.95
2022-12-11T22:24:52.123Z,5.95
2022-12-11T22:27:24.526Z,5.33
2022-12-11T22:29:58.680Z,5.12
2022-12-11T22:32:31.537Z,4.60
2022-12-11T22:35:04.061Z,4.97
2022-12-11T22:37:36.921Z,5.65
2022-12-11T22:40:10.645Z,5.28
2022-12-11T22:42:44.336Z,5.30
2022-12-11T22:45:16.776Z,4.78
2022-12-11T22:47:49.409Z,5.75
2022-12-11T22:50:21.919Z,4.85
2022-12-11T22:52:54.789Z,4.50
2022-12-11T22:55:27.277Z,4.83
2022-12-11T22:57:59.637Z,4.70
2022-12-11T23:00:31.949Z,5.15
2022-12-11T23:03:04.546Z,4.60
2022-12-11T23:05:39.365Z,4.83
2022-12-11T23:08:11.983Z,5.83
2022-12-11T23:10:44.763Z,5.28
2022-12-11T23:13:17.416Z,5.30
2022-12-11T23:15:50.350Z,5.15
2022-12-11T23:18:22.852Z,4.72
2022-12-11T23:20:55.770Z,5.40
2022-12-11T23:23:28.418Z,5.80
2022-12-11T23:26:00.949Z,5.22
2022-12-11T23:28:33.621Z,4.97
2022-12-11T23:31:06.652Z,5.00
2022-12-11T23:33:39.216Z,5.53
2022-12-11T23:36:12.048Z,5.67
2022-12-11T23:38:47.241Z,5.60
2022-12-11T23:41:19.423Z,5.40
2022-12-11T23:43:52.255Z,5.33
2022-12-11T23:46:25.936Z,5.03
2022-12-11T23:48:58.590Z,5.45
2022-12-11T23:51:31.249Z,5.28
2022-12-11T23:54:03.696Z,6.05
2022-12-11T23:56:36.797Z,5.40
2022-12-11T23:59:11.006Z,5.37
